createdAt,value
2022-10-17T00:00:12.480Z,12.07
2022-10-17T00:05:13.919Z,11.02
2022-10-17T00:10:15.265Z,12.57
2022-10-17T00:15:17.641Z,12.13
2022-10-17T00:20:19.151Z,10.00
2022-10-17T00:25:20.573Z,9.82
2022-10-17T00:30:21.923Z,9.10
2022-10-17T00:35:23.263Z,10.57
2022-10-17T00:40:25.193Z,13.13
2022-10-17T00:45:27.973Z,11.48
2022-10-17T00:50:29.613Z,13.40
2022-10-17T00:55:32.106Z,12.55
2022-10-17T01:00:33.491Z,9.25
2022-10-17T01:05:34.907Z,13.55
2022-10-17T01:10:48.271Z,12.23
2022-10-17T01:16:01.332Z,12.15
2022-10-17T01:21:18.115Z,13.52
2022-10-17T01:26:26.443Z,11.35
2022-10-17T01:31:35.456Z,11.60
2022-10-17T01:36:44.021Z,14.00
2022-10-17T01:41:51.357Z,12.77
2022-10-17T01:52:00.748Z,14.80
2022-10-17T01:57:04.353Z,15.88
2022-10-17T02:02:07.697Z,13.48
2022-10-17T02:07:09.683Z,14.80
2022-10-17T02:12:20.081Z,13.18
2022-10-17T02:17:21.449Z,12.52
2022-10-17T02:22:27.553Z,13.95
2022-10-17T02:27:33.974Z,14.40
2022-10-17T02:32:40.031Z,12.55
2022-10-17T02:37:43.222Z,16.73
2022-10-17T02:42:45.416Z,15.75
2022-10-17T02:47:59.079Z,13.23
2022-10-17T02:53:04.603Z,17.60
2022-10-17T02:58:09.064Z,12.63
2022-10-17T03:03:21.597Z,12.85
2022-10-17T03:08:23.423Z,14.65
2022-10-17T03:13:24.778Z,14.00
2022-10-17T03:18:27.763Z,14.98
2022-10-17T03:23:31.230Z,13.82
2022-10-17T03:28:32.642Z,12.45
2022-10-17T03:33:34.133Z,13.57
2022-10-17T03:38:35.645Z,12.52
2022-10-17T03:43:38.715Z,15.85
2022-10-17T03:48:40.053Z,14.68
2022-10-17T03:53:41.487Z,13.98
2022-10-17T03:58:42.987Z,15.13
2022-10-17T04:03:44.623Z,12.88
2022-10-17T04:08:46.070Z,13.55
2022-10-17T04:13:47.433Z,16.55
2022-10-17T04:18:52.535Z,13.80
2022-10-17T04:23:57.817Z,15.38
2022-10-17T04:28:59.210Z,15.85
2022-10-17T04:34:00.551Z,15.65
2022-10-17T04:39:05.529Z,17.90
2022-10-17T04:44:06.974Z,15.40
2022-10-17T04:49:08.535Z,14.90
2022-10-17T04:54:10.070Z,17.05
2022-10-17T04:59:11.414Z,14.98
2022-10-17T05:04:13.052Z,16.27
2022-10-17T05:09:14.399Z,19.27
2022-10-17T05:14:15.780Z,15.30
2022-10-17T05:19:18.453Z,15.43
2022-10-17T05:24:19.790Z,16.23
2022-10-17T05:29:21.278Z,14.43
2022-10-17T05:34:22.609Z,16.17
2022-10-17T05:39:23.935Z,15.13
2022-10-17T05:44:25.497Z,14.27
2022-10-17T05:49:33.277Z,14.07
2022-10-17T05:54:41.459Z,14.82
2022-10-17T05:59:43.074Z,15.77
2022-10-17T06:04:46.098Z,12.68
2022-10-17T06:09:47.550Z,13.30
2022-10-17T06:14:48.915Z,13.95
2022-10-17T06:19:50.285Z,13.93
2022-10-17T06:24:53.995Z,12.90
2022-10-17T06:29:55.529Z,14.50
2022-10-17T06:34:56.897Z,14.52
2022-10-17T06:39:58.337Z,14.05
2022-10-17T06:44:59.800Z,13.77
2022-10-17T06:50:01.140Z,14.68
2022-10-17T07:00:06.077Z,13.18
2022-10-17T07:05:07.555Z,12.38
2022-10-17T07:10:09.342Z,18.70
2022-10-17T07:15:10.968Z,12.75
2022-10-17T07:20:12.372Z,16.30
2022-10-17T07:25:14.362Z,14.65
2022-10-17T07:30:15.908Z,15.35
2022-10-17T07:35:17.304Z,13.52
2022-10-17T07:40:18.947Z,13.23
2022-10-17T07:45:20.452Z,14.30
2022-10-17T07:50:21.816Z,14.73
2022-10-17T07:55:23.171Z,12.90
2022-10-17T08:00:24.559Z,15.77
2022-10-17T08:05:26.112Z,12.52
2022-10-17T08:10:29.299Z,15.65
2022-10-17T08:15:32.125Z,15.38
2022-10-17T08:20:33.628Z,17.40
2022-10-17T08:25:35.049Z,16.90
2022-10-17T08:30:36.435Z,16.05
2022-10-17T08:35:38.790Z,14.73
2022-10-17T08:40:42.829Z,14.52
2022-10-17T08:45:55.910Z,14.43
2022-10-17T08:50:57.579Z,16.63
2022-10-17T08:56:01.149Z,14.80
2022-10-17T09:01:13.731Z,17.75
2022-10-17T09:06:19.028Z,16.08
2022-10-17T09:11:35.572Z,14.68
2022-10-17T09:16:48.606Z,13.77
2022-10-17T09:21:53.065Z,16.13
2022-10-17T09:26:54.893Z,14.38
2022-10-17T09:32:13.837Z,12.90
2022-10-17T09:37:15.930Z,15.23
2022-10-17T09:42:21.355Z,16.40
2022-10-17T09:47:31.562Z,14.18
2022-10-17T09:52:39.947Z,16.85
2022-10-17T09:57:52.501Z,14.27
2022-10-17T10:03:09.186Z,13.50
2022-10-17T10:08:14.865Z,13.60
2022-10-17T10:13:17.736Z,16.58
2022-10-17T10:18:25.287Z,15.07
2022-10-17T10:23:26.772Z,13.82
2022-10-17T10:28:36.476Z,13.23
2022-10-17T10:33:45.923Z,11.15
2022-10-17T10:38:53.566Z,12.52
2022-10-17T10:43:55.459Z,12.80
2022-10-17T10:49:01.501Z,11.05
2022-10-17T10:54:18.017Z,13.38
2022-10-17T10:59:23.209Z,11.65
2022-10-17T11:04:27.440Z,10.23
2022-10-17T11:09:41.477Z,8.27
2022-10-17T11:14:54.077Z,9.57
2022-10-17T11:20:24.863Z,7.95
2022-10-17T11:25:33.927Z,7.57
2022-10-17T11:35:51.695Z,6.90
2022-10-17T11:40:55.324Z,7.55
2022-10-17T11:46:15.393Z,7.85
2022-10-17T11:56:44.272Z,8.50
2022-10-17T12:02:11.794Z,13.07
2022-10-17T12:07:39.583Z,10.23
2022-10-17T12:12:41.032Z,10.20
2022-10-17T12:17:46.703Z,10.13
2022-10-17T12:22:48.595Z,14.52
2022-10-17T12:27:50.590Z,11.52
2022-10-17T12:33:11.423Z,8.88
2022-10-17T12:38:18.885Z,8.63
2022-10-17T12:43:29.526Z,7.38
2022-10-17T12:48:33.801Z,9.63
2022-10-17T12:53:35.194Z,10.55
2022-10-17T12:58:37.261Z,14.85
2022-10-17T13:03:43.224Z,12.80
2022-10-17T13:08:47.375Z,9.60
2022-10-17T13:13:53.324Z,8.25
2022-10-17T13:18:55.016Z,9.40
2022-10-17T13:23:56.599Z,7.45
2022-10-17T13:29:05.340Z,8.75
2022-10-17T13:34:15.362Z,8.30
2022-10-17T13:39:23.196Z,8.10
2022-10-17T13:44:32.170Z,8.48
2022-10-17T13:49:35.252Z,6.75
2022-10-17T13:54:38.239Z,7.30
2022-10-17T13:59:41.126Z,7.45
2022-10-17T14:05:15.011Z,8.60
2022-10-17T14:10:06.406Z,8.60
2022-10-17T14:15:12.849Z,7.55
2022-10-17T14:25:41.064Z,7.35
2022-10-17T14:30:57.713Z,8.38
2022-10-17T14:36:01.077Z,11.48
2022-10-17T14:41:41.288Z,7.90
2022-10-17T14:46:35.919Z,7.90
2022-10-17T14:51:50.334Z,8.30
2022-10-17T14:56:58.870Z,10.00
2022-10-17T15:02:00.248Z,9.55
2022-10-17T15:07:01.741Z,10.35
2022-10-17T15:12:04.299Z,9.23
2022-10-17T15:17:26.050Z,8.38
2022-10-17T15:22:27.721Z,8.65
2022-10-17T15:27:31.167Z,9.40
2022-10-17T15:32:32.970Z,9.63
2022-10-17T15:37:34.438Z,12.30
2022-10-17T15:42:35.888Z,12.05
2022-10-17T15:47:37.869Z,11.57
2022-10-17T15:52:39.311Z,8.45
2022-10-17T15:57:42.886Z,12.90
2022-10-17T16:02:44.605Z,8.80
2022-10-17T16:07:46.888Z,10.20
2022-10-17T16:12:50.489Z,11.60
2022-10-17T16:17:53.390Z,10.43
2022-10-17T16:22:59.936Z,7.85
2022-10-17T16:28:01.578Z,9.32
2022-10-17T16:33:03.048Z,9.00
2022-10-17T16:38:05.272Z,9.50
2022-10-17T16:43:07.246Z,12.43
2022-10-17T16:48:09.081Z,10.40
2022-10-17T16:53:10.550Z,11.13
2022-10-17T16:58:12.029Z,9.25
2022-10-17T17:03:13.443Z,11.98
2022-10-17T17:08:14.856Z,13.57
2022-10-17T17:13:16.620Z,11.55
2022-10-17T17:18:18.032Z,10.68
2022-10-17T17:23:19.442Z,9.45
2022-10-17T17:28:20.898Z,14.32
2022-10-17T17:33:23.239Z,11.45
2022-10-17T17:38:24.778Z,15.48
2022-10-17T17:43:26.252Z,11.77
2022-10-17T17:48:27.666Z,10.20
2022-10-17T17:53:29.065Z,12.48
2022-10-17T17:58:30.487Z,9.48
2022-10-17T18:03:31.889Z,9.20
2022-10-17T18:08:33.647Z,10.88
2022-10-17T18:13:35.052Z,10.73
2022-10-17T18:18:36.535Z,11.32
2022-10-17T18:23:38.934Z,12.05
2022-10-17T18:33:44.724Z,12.25
2022-10-17T18:38:46.219Z,14.43
2022-10-17T18:43:48.213Z,11.88
2022-10-17T18:48:50.334Z,13.38
2022-10-17T18:53:52.803Z,13.45
2022-10-17T18:58:54.850Z,10.90
2022-10-17T19:03:57.190Z,12.38
2022-10-17T19:09:00.316Z,13.00
2022-10-17T19:14:02.484Z,11.10
2022-10-17T19:19:08.390Z,12.32
2022-10-17T19:24:17.414Z,12.88
2022-10-17T19:29:19.901Z,11.90
2022-10-17T19:34:21.346Z,10.50
2022-10-17T19:39:23.916Z,13.02
2022-10-17T19:44:25.362Z,11.07
2022-10-17T19:49:26.819Z,13.98
2022-10-17T19:54:28.257Z,10.73
2022-10-17T19:59:29.693Z,11.02
2022-10-17T20:04:31.176Z,16.85
2022-10-17T20:09:32.545Z,12.45
2022-10-17T20:14:38.629Z,15.15
2022-10-17T20:19:42.298Z,11.40
2022-10-17T20:24:43.805Z,13.32
2022-10-17T20:29:45.302Z,15.45
2022-10-17T20:34:46.718Z,12.90
2022-10-17T20:39:55.801Z,13.20
2022-10-17T20:45:06.705Z,13.68
2022-10-17T20:50:08.286Z,22.08
2022-10-17T20:55:09.675Z,11.68
2022-10-17T21:00:11.360Z,13.02
2022-10-17T21:05:12.805Z,11.52
2022-10-17T21:10:34.335Z,14.95
2022-10-17T21:15:35.679Z,11.32
2022-10-17T21:20:37.748Z,12.20
2022-10-17T21:25:40.774Z,16.45
2022-10-17T21:30:42.439Z,11.30
2022-10-17T21:35:43.901Z,11.57
2022-10-17T21:40:46.764Z,14.45
2022-10-17T21:45:48.164Z,13.07
2022-10-17T21:50:55.636Z,13.25
2022-10-17T21:56:04.935Z,14.82
2022-10-17T22:01:06.352Z,10.40
2022-10-17T22:06:37.561Z,9.95
2022-10-17T22:11:31.140Z,10.75
2022-10-17T22:16:32.671Z,11.63
2022-10-17T22:21:35.137Z,12.50
2022-10-17T22:26:37.670Z,15.63
2022-10-17T22:31:39.733Z,11.52
2022-10-17T22:36:41.275Z,13.55
2022-10-17T22:41:42.685Z,14.43
2022-10-17T22:46:44.076Z,12.77
2022-10-17T22:51:45.482Z,12.82
2022-10-17T22:56:47.202Z,10.82
2022-10-17T23:01:48.612Z,11.63
2022-10-17T23:06:50.023Z,16.95
2022-10-17T23:11:51.441Z,14.63
2022-10-17T23:16:52.810Z,15.02
2022-10-17T23:21:54.216Z,15.30
2022-10-17T23:26:55.670Z,12.27
2022-10-17T23:31:57.173Z,17.27
2022-10-17T23:36:58.716Z,12.27
2022-10-17T23:42:00.135Z,12.10
2022-10-17T23:47:02.391Z,17.38
2022-10-17T23:52:03.886Z,13.73
2022-10-17T23:57:05.376Z,15.70
